Time;durP1;ratioP1;P1;durP2;ratioP2;P2;SDS_P1;SDS_P2;PMS_P1;PMS_P2;Temp;Humidity;BMP_temperature;BMP_pressure;BME280_temperature;BME280_humidity;BME280_pressure;Samples;Min_cycle;Max_cycle;Signal;HPM_P1;HPM_P2
2022/05/23 00:01:19;;;;;;;2.50;2.30;;;23.20;73.70;;;;;;6281411;27;89058;-66
2022/05/23 00:04:21;;;;;;;2.35;2.15;;;23.20;73.70;;;;;;6281397;27;89325;-67
2022/05/23 00:07:29;;;;;;;3.33;2.42;;;23.20;73.80;;;;;;6281147;27;89034;-68
2022/05/23 00:10:31;;;;;;;3.05;2.13;;;23.20;73.90;;;;;;6279118;27;87182;-67
2022/05/23 00:13:34;;;;;;;2.92;2.33;;;23.10;73.80;;;;;;6278223;27;89244;-67
2022/05/23 00:16:40;;;;;;;2.97;2.30;;;23.10;73.80;;;;;;6280027;27;89514;-67
2022/05/23 00:19:42;;;;;;;4.40;2.55;;;23.10;73.90;;;;;;6280264;27;90099;-67
2022/05/23 00:22:46;;;;;;;3.10;2.75;;;23.10;73.90;;;;;;6281089;27;89101;-67
2022/05/23 00:25:48;;;;;;;3.63;2.70;;;23.10;73.90;;;;;;6267638;27;89374;-68
2022/05/23 00:28:50;;;;;;;3.05;2.40;;;23.10;73.90;;;;;;6272306;27;87956;-66
2022/05/23 00:35:21;;;;;;;4.13;2.70;;;23.10;73.80;;;;;;6271116;27;87283;-66
2022/05/23 00:38:24;;;;;;;3.13;2.70;;;23.10;73.80;;;;;;6283162;27;88370;-67
2022/05/23 00:44:55;;;;;;;2.70;2.25;;;23.10;73.50;;;;;;6284853;27;87230;-67
2022/05/23 00:47:57;;;;;;;3.80;2.60;;;23.00;73.50;;;;;;6284921;27;89028;-67
2022/05/23 00:51:02;;;;;;;3.45;2.75;;;23.10;73.30;;;;;;6283942;27;90060;-67
2022/05/23 00:54:06;;;;;;;4.78;2.85;;;23.10;73.20;;;;;;6279376;27;89151;-66
2022/05/23 00:57:13;;;;;;;3.80;2.50;;;23.00;73.20;;;;;;6284055;27;89050;-67
2022/05/23 01:00:16;;;;;;;3.10;2.80;;;23.00;73.00;;;;;;6281435;27;89131;-67
2022/05/23 01:03:20;;;;;;;4.68;3.00;;;23.00;73.00;;;;;;6283133;27;89587;-67
2022/05/23 01:06:22;;;;;;;4.45;2.80;;;23.00;72.90;;;;;;6281804;27;87889;-67
2022/05/23 01:09:27;;;;;;;3.08;2.72;;;22.90;72.80;;;;;;6283825;27;89014;-66
2022/05/23 01:12:30;;;;;;;5.47;3.20;;;22.90;72.50;;;;;;6283839;27;88337;-67
2022/05/23 01:15:33;;;;;;;4.13;2.92;;;22.90;72.30;;;;;;6282035;27;88024;-67
2022/05/23 01:18:35;;;;;;;4.57;2.90;;;22.90;72.30;;;;;;6283722;27;89081;-66
2022/05/23 01:21:49;;;;;;;4.43;2.97;;;22.90;72.20;;;;;;6283225;27;90182;-66
2022/05/23 01:25:02;;;;;;;4.53;3.03;;;22.90;72.20;;;;;;6277888;27;89120;-66
2022/05/23 01:28:06;;;;;;;3.13;2.67;;;22.80;72.10;;;;;;6283148;27;89132;-66
2022/05/23 01:31:11;;;;;;;5.32;2.85;;;22.80;72.20;;;;;;6283977;27;89080;-67
2022/05/23 01:34:14;;;;;;;3.03;2.72;;;22.80;72.30;;;;;;6270292;27;89331;-67
2022/05/23 01:37:16;;;;;;;3.33;2.70;;;22.70;72.20;;;;;;6276768;27;89072;-66
2022/05/23 01:40:19;;;;;;;3.60;2.80;;;22.80;72.30;;;;;;6283978;27;89179;-67
2022/05/23 01:43:22;;;;;;;3.35;3.03;;;22.80;72.20;;;;;;6272315;27;88410;-67
2022/05/23 01:46:25;;;;;;;4.00;2.80;;;22.70;71.80;;;;;;6283882;27;89104;-65
2022/05/23 01:49:27;;;;;;;3.55;3.05;;;22.70;72.00;;;;;;6283361;27;88596;-67
2022/05/23 01:52:29;;;;;;;4.63;2.90;;;22.70;72.00;;;;;;6282930;27;90390;-66
2022/05/23 01:55:31;;;;;;;4.22;3.00;;;22.60;72.10;;;;;;6284132;27;89069;-67
2022/05/23 02:01:54;;;;;;;5.00;3.00;;;22.60;72.00;;;;;;6284064;27;87565;-67
2022/05/23 02:04:56;;;;;;;3.25;2.78;;;22.60;72.00;;;;;;6283530;27;89099;-66
2022/05/23 02:07:58;;;;;;;3.80;2.83;;;22.60;71.80;;;;;;6283350;27;89117;-67
2022/05/23 02:11:00;;;;;;;4.25;3.15;;;22.60;71.80;;;;;;6283682;27;89128;-67
2022/05/23 02:14:03;;;;;;;2.78;2.58;;;22.50;71.60;;;;;;6283005;27;88562;-66
2022/05/23 02:17:09;;;;;;;4.28;2.85;;;22.40;71.90;;;;;;6282479;27;89420;-67
2022/05/23 02:20:13;;;;;;;5.13;2.83;;;22.40;72.20;;;;;;6272327;27;89137;-67
2022/05/23 02:23:15;;;;;;;4.68;2.92;;;22.40;72.50;;;;;;6282386;27;90356;-66
2022/05/23 02:26:17;;;;;;;4.43;2.67;;;22.30;72.80;;;;;;6270991;27;89120;-65
2022/05/23 02:29:21;;;;;;;4.70;2.72;;;22.30;72.80;;;;;;6282855;27;89091;-66
2022/05/23 02:32:23;;;;;;;4.47;3.00;;;22.30;72.80;;;;;;6278129;27;89090;-67
2022/05/23 02:35:25;;;;;;;4.05;2.72;;;22.30;72.80;;;;;;6275051;27;89091;-66
2022/05/23 02:38:27;;;;;;;3.25;2.60;;;22.20;72.80;;;;;;6282350;27;87895;-66
2022/05/23 02:41:29;;;;;;;3.20;2.70;;;22.20;72.90;;;;;;6282414;27;89093;-67
2022/05/23 02:44:33;;;;;;;3.28;2.50;;;22.30;73.00;;;;;;6282560;27;88438;-67
2022/05/23 02:47:35;;;;;;;3.03;2.58;;;22.30;72.90;;;;;;6283301;27;88016;-66
2022/05/23 02:50:37;;;;;;;3.78;2.67;;;22.20;72.90;;;;;;6282737;27;89074;-67
2022/05/23 02:53:39;;;;;;;3.17;2.72;;;22.30;73.10;;;;;;6281468;27;89976;-66
2022/05/23 02:56:41;;;;;;;3.28;2.47;;;22.30;73.20;;;;;;6282289;27;89302;-66
2022/05/23 02:59:45;;;;;;;3.47;2.58;;;22.30;73.20;;;;;;6280992;27;89073;-67
2022/05/23 03:03:06;;;;;;;3.03;2.67;;;22.40;73.10;;;;;;6282579;27;89048;-65
2022/05/23 03:06:08;;;;;;;3.53;2.55;;;22.30;73.00;;;;;;6282549;27;89124;-66
2022/05/23 03:09:11;;;;;;;4.15;2.70;;;22.30;72.80;;;;;;6282136;27;88783;-66
2022/05/23 03:12:13;;;;;;;2.97;2.17;;;22.30;72.80;;;;;;6281862;27;89102;-66
2022/05/23 03:15:17;;;;;;;2.95;2.65;;;22.30;72.80;;;;;;6282216;27;87246;-66
2022/05/23 03:18:19;;;;;;;3.58;2.47;;;22.30;72.80;;;;;;6281962;27;88028;-66
2022/05/23 03:27:53;;;;;;;3.35;2.42;;;22.30;72.30;;;;;;6225451;27;88133;-67
2022/05/23 03:30:56;;;;;;;3.67;2.60;;;22.30;72.30;;;;;;6269766;27;89213;-66
2022/05/23 03:33:58;;;;;;;2.40;2.15;;;22.30;72.20;;;;;;6275305;27;87955;-66
2022/05/23 03:37:00;;;;;;;3.13;2.60;;;22.30;72.20;;;;;;6281835;27;89078;-65
2022/05/23 03:40:03;;;;;;;2.90;2.30;;;22.30;71.90;;;;;;6270243;27;89129;-66
2022/05/23 03:43:07;;;;;;;3.22;2.53;;;22.30;71.60;;;;;;6281882;27;89019;-66
2022/05/23 03:46:13;;;;;;;3.63;2.50;;;22.20;71.50;;;;;;6282526;27;88294;-66
2022/05/23 03:49:15;;;;;;;3.42;2.50;;;22.20;71.60;;;;;;6281904;27;87989;-66
2022/05/23 03:52:17;;;;;;;3.13;2.60;;;22.10;71.50;;;;;;6281553;27;88947;-66
2022/05/23 03:55:20;;;;;;;5.10;2.70;;;22.10;71.50;;;;;;6280516;27;89851;-66
2022/05/23 03:58:22;;;;;;;3.65;2.55;;;22.00;71.60;;;;;;6280952;27;89460;-66
2022/05/23 04:01:27;;;;;;;3.40;2.30;;;22.00;71.80;;;;;;6281698;27;89126;-66
2022/05/23 04:04:31;;;;;;;3.65;2.60;;;21.90;71.50;;;;;;6281458;27;89047;-66
2022/05/23 04:07:36;;;;;;;7.55;3.45;;;21.90;71.60;;;;;;6276061;27;89336;-66
2022/05/23 04:10:40;;;;;;;3.50;2.67;;;21.80;71.50;;;;;;6273668;27;89019;-66
2022/05/23 04:13:42;;;;;;;3.42;2.40;;;21.70;71.80;;;;;;6279793;27;87963;-66
2022/05/23 04:16:47;;;;;;;4.03;2.60;;;21.60;71.80;;;;;;6281866;27;88349;-66
2022/05/23 04:19:49;;;;;;;3.60;2.58;;;21.50;72.10;;;;;;6285167;27;87957;-66
2022/05/23 04:22:51;;;;;;;4.60;2.80;;;21.50;72.30;;;;;;6284703;27;88908;-66
2022/05/23 04:25:54;;;;;;;5.53;2.75;;;21.50;72.30;;;;;;6284537;27;90062;-66
2022/05/23 04:28:55;;;;;;;3.80;2.45;;;21.40;72.60;;;;;;6285210;27;89193;-65
2022/05/23 04:31:59;;;;;;;3.63;2.20;;;21.40;72.80;;;;;;6284673;27;88970;-66
2022/05/23 04:35:15;;;;;;;3.35;2.30;;;21.50;73.00;;;;;;6277493;27;88008;-66
2022/05/23 04:38:17;;;;;;;3.88;2.40;;;21.50;73.00;;;;;;6285472;27;89205;-65
2022/05/23 04:41:19;;;;;;;3.05;2.17;;;21.60;73.10;;;;;;6284741;27;89100;-66
2022/05/23 04:44:21;;;;;;;4.25;2.35;;;21.60;73.20;;;;;;6285370;27;89178;-66
2022/05/23 04:50:45;;;;;;;2.75;2.20;;;21.60;73.70;;;;;;6272499;27;87302;-66
2022/05/23 04:53:53;;;;;;;4.25;2.30;;;21.70;73.80;;;;;;6284561;27;89061;-66
2022/05/23 04:56:54;;;;;;;3.38;2.17;;;21.70;74.00;;;;;;6283891;27;90491;-66
2022/05/23 04:59:56;;;;;;;5.30;2.40;;;21.70;74.40;;;;;;6284034;27;89142;-67
2022/05/23 05:03:00;;;;;;;6.72;2.85;;;21.80;75.10;;;;;;6262048;27;89042;-65
2022/05/23 05:06:02;;;;;;;7.60;2.45;;;21.80;75.90;;;;;;6282875;27;89090;-66
2022/05/23 05:09:04;;;;;;;5.57;2.55;;;21.80;76.60;;;;;;6284580;27;89103;-67
2022/05/23 05:12:07;;;;;;;6.03;2.60;;;21.80;77.10;;;;;;6284647;27;89113;-67
2022/05/23 05:15:10;;;;;;;3.85;2.40;;;21.80;77.70;;;;;;6283210;27;89240;-66
2022/05/23 05:18:13;;;;;;;4.97;2.67;;;21.80;77.70;;;;;;6284316;27;88395;-66
2022/05/23 05:21:15;;;;;;;4.22;2.55;;;21.90;77.70;;;;;;6279059;27;89095;-66
2022/05/23 05:24:18;;;;;;;4.38;2.65;;;21.90;77.40;;;;;;6278030;27;87595;-66
2022/05/23 05:27:20;;;;;;;5.50;2.17;;;21.90;77.50;;;;;;6283609;27;89897;-67
2022/05/23 05:30:22;;;;;;;6.22;2.30;;;21.90;77.30;;;;;;6284148;27;88762;-67
2022/05/23 05:33:31;;;;;;;3.13;2.40;;;21.90;77.20;;;;;;6272259;27;89067;-67
2022/05/23 05:36:37;;;;;;;4.65;2.78;;;21.90;77.30;;;;;;6283763;27;89035;-67
2022/05/23 05:39:41;;;;;;;3.60;2.30;;;21.90;77.20;;;;;;6284494;27;89076;-67
2022/05/23 05:42:47;;;;;;;3.20;2.40;;;21.90;77.20;;;;;;6270963;27;89346;-67
2022/05/23 05:45:53;;;;;;;3.45;2.22;;;21.90;77.30;;;;;;6283840;27;89109;-67
2022/05/23 05:49:00;;;;;;;4.00;2.30;;;21.90;77.10;;;;;;6284476;27;88239;-67
2022/05/23 05:52:05;;;;;;;2.67;2.22;;;22.00;77.10;;;;;;6283939;27;89169;-67
2022/05/23 05:55:09;;;;;;;4.50;2.40;;;22.00;77.30;;;;;;6284188;27;89177;-66
2022/05/23 05:58:11;;;;;;;2.35;2.00;;;22.00;77.40;;;;;;6283322;27;89942;-67
2022/05/23 06:01:13;;;;;;;3.80;2.40;;;22.00;77.50;;;;;;6284026;27;89170;-67
2022/05/23 06:04:17;;;;;;;2.92;2.50;;;22.00;77.70;;;;;;6283345;27;89015;-67
2022/05/23 06:14:02;;;;;;;4.72;2.60;;;22.00;77.70;;;;;;6283260;27;87178;-67
2022/05/23 06:17:07;;;;;;;2.97;2.28;;;22.10;77.70;;;;;;6283141;27;89307;-67
2022/05/23 06:20:12;;;;;;;2.97;2.28;;;22.10;77.60;;;;;;6274556;27;88608;-67
2022/05/23 06:23:14;;;;;;;3.80;2.25;;;22.10;77.30;;;;;;6276882;27;89207;-67
2022/05/23 06:26:18;;;;;;;3.15;2.55;;;22.10;77.30;;;;;;6282699;27;89669;-67
2022/05/23 06:29:20;;;;;;;2.53;2.25;;;22.10;77.40;;;;;;6282505;27;89940;-66
2022/05/23 06:32:22;;;;;;;2.70;2.22;;;22.10;77.30;;;;;;6282339;27;89499;-66
2022/05/23 06:35:25;;;;;;;2.70;2.30;;;22.10;77.40;;;;;;6281494;27;89106;-66
2022/05/23 06:38:28;;;;;;;2.90;2.30;;;22.10;77.20;;;;;;6282446;27;89157;-67
2022/05/23 06:41:30;;;;;;;2.97;2.40;;;22.20;77.20;;;;;;6283102;27;89188;-67
2022/05/23 06:44:33;;;;;;;2.90;2.40;;;22.10;77.20;;;;;;6282669;27;89126;-67
2022/05/23 06:47:35;;;;;;;2.25;1.95;;;22.20;77.30;;;;;;6283043;27;89102;-66
2022/05/23 06:50:38;;;;;;;2.50;2.20;;;22.20;77.40;;;;;;6283027;27;88811;-66
2022/05/23 06:53:40;;;;;;;4.03;2.08;;;22.20;77.40;;;;;;6275955;27;88285;-67
2022/05/23 06:56:43;;;;;;;3.10;2.22;;;22.20;77.40;;;;;;6281684;27;89314;-67
2022/05/23 06:59:45;;;;;;;3.03;2.20;;;22.20;77.40;;;;;;6278967;27;89956;-67
2022/05/23 07:02:47;;;;;;;2.72;2.40;;;22.20;77.40;;;;;;6275700;27;89138;-67
2022/05/23 07:12:43;;;;;;;3.40;2.53;;;22.20;77.40;;;;;;6154776;28;88034;-66
2022/05/23 07:15:48;;;;;;;2.55;1.90;;;22.30;77.40;;;;;;6149394;28;89185;-67
2022/05/23 07:18:50;;;;;;;2.90;2.10;;;22.30;77.30;;;;;;6275377;27;89362;-67
2022/05/23 07:21:59;;;;;;;2.38;2.05;;;22.30;77.20;;;;;;6282077;27;88475;-68
2022/05/23 07:25:01;;;;;;;2.38;2.00;;;22.30;77.20;;;;;;6281576;27;88818;-66
2022/05/23 07:28:04;;;;;;;2.58;2.17;;;22.30;77.20;;;;;;6271979;27;89027;-66
2022/05/23 07:31:06;;;;;;;3.25;2.28;;;22.30;77.20;;;;;;6281341;27;90035;-67
2022/05/23 07:34:08;;;;;;;2.13;1.92;;;22.30;77.20;;;;;;6282302;27;87812;-67
2022/05/23 07:37:11;;;;;;;3.17;2.42;;;22.30;77.20;;;;;;6276374;27;89183;-66
2022/05/23 07:40:14;;;;;;;2.10;1.88;;;22.30;77.20;;;;;;6274747;27;89163;-67
2022/05/23 07:43:16;;;;;;;2.30;2.10;;;22.30;77.20;;;;;;6281854;27;89162;-67
2022/05/23 07:46:18;;;;;;;2.72;2.20;;;22.30;77.20;;;;;;6280992;27;89067;-67
2022/05/23 07:49:20;;;;;;;2.50;2.10;;;22.30;77.30;;;;;;6281275;27;89059;-66
2022/05/23 07:52:24;;;;;;;2.40;2.10;;;22.30;77.30;;;;;;6281979;27;87223;-67
2022/05/23 08:02:05;;;;;;;2.42;2.20;;;22.40;77.40;;;;;;6270226;27;88947;-66
2022/05/23 08:05:09;;;;;;;2.35;2.10;;;22.30;77.40;;;;;;6281571;27;88849;-67
2022/05/23 08:08:12;;;;;;;2.78;2.10;;;22.40;77.40;;;;;;6281305;27;89012;-67
2022/05/23 08:11:14;;;;;;;2.20;2.00;;;22.30;77.40;;;;;;6281463;27;89037;-67
2022/05/23 08:14:17;;;;;;;2.55;2.00;;;22.40;77.50;;;;;;6280695;27;87792;-66
2022/05/23 08:17:19;;;;;;;2.33;2.00;;;22.40;77.40;;;;;;6281188;27;89609;-66
2022/05/23 08:20:21;;;;;;;2.22;2.03;;;22.40;77.50;;;;;;6281343;27;89082;-67
2022/05/23 08:23:24;;;;;;;2.05;1.83;;;22.40;77.60;;;;;;6281425;27;88402;-67
2022/05/23 08:26:27;;;;;;;2.08;1.77;;;22.40;77.50;;;;;;6269683;27;89097;-67
2022/05/23 08:29:31;;;;;;;2.42;1.98;;;22.40;78.30;;;;;;6280930;27;89085;-67
2022/05/23 08:32:33;;;;;;;2.67;2.17;;;22.40;77.50;;;;;;6274783;27;90115;-67
2022/05/23 08:35:35;;;;;;;3.13;2.08;;;22.40;77.50;;;;;;6267502;27;88998;-67
2022/05/23 08:38:38;;;;;;;2.17;1.98;;;22.40;77.60;;;;;;6281308;27;87974;-67
2022/05/23 08:41:44;;;;;;;2.05;1.90;;;22.40;77.60;;;;;;6280427;27;89009;-67
2022/05/23 08:44:48;;;;;;;2.40;2.10;;;22.40;77.60;;;;;;6280378;27;89384;-66
2022/05/23 08:48:01;;;;;;;2.40;2.20;;;22.40;77.60;;;;;;6280670;27;89153;-67
2022/05/23 08:51:17;;;;;;;2.55;2.25;;;22.40;77.60;;;;;;6270392;27;88696;-67
2022/05/23 08:54:26;;;;;;;2.33;2.10;;;22.40;77.60;;;;;;6279661;27;88330;-67
2022/05/23 08:57:36;;;;;;;2.10;1.90;;;22.40;77.70;;;;;;6270068;27;89140;-67
2022/05/23 09:00:42;;;;;;;2.33;2.10;;;22.50;77.70;;;;;;6284672;27;87993;-67
2022/05/23 09:03:50;;;;;;;1.90;1.80;;;22.40;77.70;;;;;;6284257;27;90429;-66
2022/05/23 09:06:52;;;;;;;2.53;2.08;;;22.40;77.70;;;;;;6272480;27;89304;-66
2022/05/23 09:10:00;;;;;;;2.20;2.00;;;22.50;77.80;;;;;;6284374;27;89234;-67
2022/05/23 09:13:02;;;;;;;2.35;1.90;;;22.40;77.70;;;;;;6285027;27;88964;-67
2022/05/23 09:16:05;;;;;;;1.75;1.65;;;22.40;77.80;;;;;;6284260;27;89175;-67
2022/05/23 09:19:16;;;;;;;2.20;2.00;;;22.40;77.80;;;;;;6280328;27;89162;-68
2022/05/23 09:22:23;;;;;;;2.00;1.70;;;22.50;77.90;;;;;;6273659;27;89076;-67
2022/05/23 09:25:28;;;;;;;3.15;2.13;;;22.50;77.90;;;;;;6284678;27;88757;-67
2022/05/23 09:28:34;;;;;;;2.17;1.98;;;22.40;77.90;;;;;;6283985;27;89118;-66
2022/05/23 09:31:49;;;;;;;2.55;1.70;;;22.50;78.90;;;;;;6284627;27;89165;-67
2022/05/23 09:34:55;;;;;;;1.77;1.67;;;22.40;77.90;;;;;;6283110;27;90088;-67
2022/05/23 09:38:15;;;;;;;2.10;1.90;;;22.50;78.00;;;;;;6271689;27;87762;-67
2022/05/23 09:48:17;;;;;;;2.10;1.90;;;22.50;78.00;;;;;;6284945;27;87250;-67
2022/05/23 09:51:19;;;;;;;2.03;1.83;;;22.50;78.10;;;;;;6283973;27;89569;-67
2022/05/23 09:54:25;;;;;;;2.30;1.80;;;22.50;78.30;;;;;;6281640;27;88455;-67
2022/05/23 09:57:35;;;;;;;2.05;1.85;;;22.50;78.30;;;;;;6273469;27;88271;-67
2022/05/23 10:00:38;;;;;;;2.28;1.95;;;22.50;78.30;;;;;;6283288;27;89151;-67
2022/05/23 10:03:50;;;;;;;2.30;2.10;;;22.50;78.40;;;;;;6283674;27;89187;-67
2022/05/23 10:06:52;;;;;;;2.25;1.90;;;22.50;78.40;;;;;;6270923;27;89999;-68
2022/05/23 10:10:00;;;;;;;3.10;2.08;;;22.50;78.50;;;;;;6283172;27;89214;-67
2022/05/23 10:13:20;;;;;;;2.17;1.98;;;22.50;78.40;;;;;;6283433;27;88939;-67
2022/05/23 10:16:26;;;;;;;1.90;1.70;;;22.50;78.40;;;;;;6275862;27;89106;-66
2022/05/23 10:19:32;;;;;;;2.10;1.90;;;22.50;78.40;;;;;;6282891;27;89179;-66
2022/05/23 10:22:34;;;;;;;2.58;2.13;;;22.50;78.40;;;;;;6283189;27;89156;-66
2022/05/23 10:25:40;;;;;;;2.28;2.08;;;22.50;78.40;;;;;;6282656;27;88849;-67
2022/05/23 10:28:48;;;;;;;2.53;2.10;;;22.50;78.40;;;;;;6283482;27;88192;-67
2022/05/23 10:31:55;;;;;;;2.58;2.10;;;22.50;78.40;;;;;;6282967;27;89056;-68
2022/05/23 10:35:06;;;;;;;1.92;1.73;;;22.50;78.40;;;;;;6264210;27;88008;-67
2022/05/23 10:45:17;;;;;;;2.00;1.90;;;22.50;78.40;;;;;;6283432;27;87188;-66
2022/05/23 10:48:45;;;;;;;1.88;1.77;;;22.50;78.40;;;;;;6279142;27;89086;-67
2022/05/23 10:52:03;;;;;;;1.70;1.60;;;22.50;78.40;;;;;;6282732;27;89105;-67
2022/05/23 10:55:13;;;;;;;2.45;1.90;;;22.50;78.50;;;;;;6282188;27;89185;-67
2022/05/23 10:58:24;;;;;;;2.03;1.88;;;22.50;78.40;;;;;;6282228;27;89177;-67
2022/05/23 11:01:45;;;;;;;2.42;2.00;;;22.50;78.50;;;;;;6271199;27;87156;-67
2022/05/23 11:04:58;;;;;;;2.03;1.88;;;22.50;78.40;;;;;;6281843;27;87976;-67
2022/05/23 11:08:30;;;;;;;2.30;1.90;;;22.50;78.50;;;;;;6282343;27;88964;-67
2022/05/23 11:11:53;;;;;;;2.50;2.00;;;22.50;78.40;;;;;;6281221;27;90083;-67
2022/05/23 11:15:12;;;;;;;2.22;1.83;;;22.50;78.40;;;;;;6270710;27;89037;-66
2022/05/23 11:18:22;;;;;;;2.42;1.98;;;22.50;78.40;;;;;;6270845;27;87993;-67
2022/05/23 11:21:43;;;;;;;1.83;1.73;;;22.50;78.50;;;;;;6271876;27;89029;-67
2022/05/23 11:24:52;;;;;;;1.90;1.80;;;22.60;78.50;;;;;;6282630;27;89041;-67
2022/05/23 11:34:51;;;;;;;1.95;1.75;;;22.50;78.60;;;;;;6275152;27;86543;-68
2022/05/23 11:37:54;;;;;;;2.17;1.98;;;22.50;78.70;;;;;;6281172;27;88127;-67
2022/05/23 11:41:04;;;;;;;2.45;2.05;;;22.60;78.80;;;;;;6281608;27;89330;-67
2022/05/23 11:44:37;;;;;;;2.22;2.03;;;22.50;78.80;;;;;;6280821;27;90944;-67
2022/05/23 11:47:48;;;;;;;2.10;1.90;;;22.50;78.80;;;;;;6269344;27;89428;-68
2022/05/23 11:50:52;;;;;;;2.15;1.95;;;22.60;78.90;;;;;;6270181;27;89111;-67
2022/05/23 11:54:03;;;;;;;2.03;1.90;;;22.60;78.90;;;;;;6281913;27;87986;-66
2022/05/23 11:57:18;;;;;;;2.80;1.90;;;22.60;78.90;;;;;;6281805;27;89165;-67
2022/05/23 12:00:35;;;;;;;2.20;2.00;;;22.60;78.90;;;;;;6272113;27;89221;-68
2022/05/23 12:04:19;;;;;;;1.77;1.67;;;22.60;78.90;;;;;;6269202;27;89149;-67
2022/05/23 12:07:57;;;;;;;2.00;1.80;;;22.60;78.90;;;;;;6171436;28;88358;-67
2022/05/23 12:11:02;;;;;;;2.10;1.90;;;22.60;79.00;;;;;;6192462;28;89501;-67
2022/05/23 12:14:17;;;;;;;2.13;1.90;;;22.60;79.00;;;;;;6275209;27;89039;-66
2022/05/23 12:17:26;;;;;;;2.30;2.10;;;22.60;79.10;;;;;;6274781;27;88682;-67
2022/05/23 12:20:46;;;;;;;2.38;2.10;;;22.60;79.10;;;;;;6281290;27;89136;-67
2022/05/23 12:24:27;;;;;;;1.70;1.60;;;22.60;79.00;;;;;;6276527;27;89036;-67
2022/05/23 12:27:33;;;;;;;1.88;1.70;;;22.60;79.10;;;;;;6278864;27;89135;-67
2022/05/23 12:30:37;;;;;;;2.47;1.70;;;22.60;79.10;;;;;;6281132;27;89132;-67
2022/05/23 12:33:45;;;;;;;2.03;1.90;;;22.60;79.10;;;;;;6272302;27;88824;-67
2022/05/23 12:36:49;;;;;;;2.47;2.17;;;22.60;79.10;;;;;;6285554;27;89124;-66
2022/05/23 12:40:03;;;;;;;2.30;2.00;;;22.60;79.20;;;;;;6286086;27;88337;-67
2022/05/23 12:43:18;;;;;;;1.98;1.80;;;22.60;79.20;;;;;;6284722;27;88055;-67
2022/05/23 12:46:35;;;;;;;2.30;2.03;;;22.60;79.30;;;;;;6284870;27;89109;-67
2022/05/23 12:49:51;;;;;;;2.13;1.90;;;22.60;79.30;;;;;;6283826;27;90236;-67
2022/05/23 12:53:29;;;;;;;2.10;1.90;;;22.60;79.30;;;;;;6285326;27;89078;-67
2022/05/23 12:56:52;;;;;;;2.45;1.90;;;22.70;79.40;;;;;;6285069;27;87811;-67
2022/05/23 12:59:57;;;;;;;2.85;1.90;;;22.60;79.30;;;;;;6278522;27;89048;-67
2022/05/23 13:03:07;;;;;;;2.10;1.90;;;22.60;79.40;;;;;;6279152;27;88004;-67
2022/05/23 13:06:16;;;;;;;1.90;1.80;;;22.60;79.50;;;;;;6277576;27;89354;-67
2022/05/23 13:09:23;;;;;;;2.00;1.90;;;22.60;79.40;;;;;;6278995;27;89061;-67
2022/05/23 13:12:31;;;;;;;1.80;1.70;;;22.60;79.50;;;;;;6285011;27;88399;-66
2022/05/23 13:15:35;;;;;;;2.00;1.85;;;22.60;79.40;;;;;;6283834;27;89204;-67
2022/05/23 13:22:06;;;;;;;2.22;1.88;;;22.60;79.50;;;;;;6271519;27;88264;-67
2022/05/23 13:25:08;;;;;;;2.00;1.88;;;22.60;79.60;;;;;;6284522;27;88869;-68
2022/05/23 13:28:15;;;;;;;2.03;1.83;;;22.60;79.60;;;;;;6284088;27;89177;-67
2022/05/23 13:31:26;;;;;;;1.98;1.80;;;22.60;79.60;;;;;;6284075;27;89065;-67
2022/05/23 13:34:33;;;;;;;2.03;1.83;;;22.60;79.80;;;;;;6284408;27;89319;-67
2022/05/23 13:37:37;;;;;;;2.10;1.90;;;22.60;79.80;;;;;;6284342;27;89414;-67
2022/05/23 13:40:44;;;;;;;2.00;1.77;;;22.60;79.80;;;;;;6284272;27;89080;-66
2022/05/23 13:43:49;;;;;;;1.88;1.73;;;22.60;79.80;;;;;;6283080;27;88449;-67
2022/05/23 13:46:55;;;;;;;1.92;1.80;;;22.60;79.80;;;;;;6283173;27;88711;-67
2022/05/23 13:50:00;;;;;;;2.45;2.00;;;22.70;79.90;;;;;;6283672;27;89192;-67
2022/05/23 13:53:10;;;;;;;2.33;1.98;;;22.60;79.80;;;;;;6283254;27;90111;-68
2022/05/23 13:56:13;;;;;;;2.10;1.90;;;22.70;80.00;;;;;;6283345;27;89071;-66
2022/05/23 13:59:20;;;;;;;2.78;2.03;;;22.60;80.00;;;;;;6282274;27;89158;-67
2022/05/23 14:02:26;;;;;;;2.20;2.00;;;22.60;80.00;;;;;;6273867;27;89081;-68
2022/05/23 14:05:33;;;;;;;4.82;3.35;;;22.60;80.20;;;;;;6285741;27;89076;-66
2022/05/23 14:08:40;;;;;;;3.38;2.30;;;22.70;81.30;;;;;;6282352;27;89129;-65
2022/05/23 14:11:48;;;;;;;2.10;1.90;;;22.60;81.00;;;;;;6282548;27;89234;-68
2022/05/23 14:14:56;;;;;;;2.30;2.10;;;22.70;80.80;;;;;;6282099;27;88320;-67
2022/05/23 14:18:01;;;;;;;2.75;2.10;;;22.70;80.70;;;;;;6281981;27;89051;-67
2022/05/23 14:21:03;;;;;;;2.80;2.22;;;22.70;80.70;;;;;;6282193;27;89259;-68
2022/05/23 14:24:16;;;;;;;2.60;2.20;;;22.70;81.00;;;;;;6281333;27;89953;-67
2022/05/23 14:27:25;;;;;;;2.53;2.00;;;22.70;81.10;;;;;;6270155;27;89179;-67
2022/05/23 14:30:35;;;;;;;3.30;2.15;;;22.70;81.20;;;;;;6282546;27;88812;-67
2022/05/23 14:33:42;;;;;;;3.88;2.35;;;22.70;81.40;;;;;;6274416;27;89648;-67
2022/05/23 14:36:53;;;;;;;2.30;2.10;;;22.70;81.30;;;;;;6282934;27;88976;-67
2022/05/23 14:39:55;;;;;;;2.95;2.08;;;22.70;81.20;;;;;;6283242;27;89147;-68
2022/05/23 14:42:57;;;;;;;2.33;2.13;;;22.70;81.10;;;;;;6283463;27;88066;-68
2022/05/23 14:46:15;;;;;;;4.15;2.20;;;22.70;81.20;;;;;;6283496;27;88399;-67
2022/05/23 14:49:29;;;;;;;2.70;2.22;;;22.70;81.10;;;;;;6270380;27;89176;-67
2022/05/23 14:52:36;;;;;;;2.83;2.17;;;22.70;81.00;;;;;;6268897;27;89121;-67
2022/05/23 14:55:45;;;;;;;2.97;2.40;;;22.70;81.00;;;;;;6267712;27;90036;-67
2022/05/23 15:02:17;;;;;;;2.20;2.00;;;22.70;81.00;;;;;;6283164;27;87365;-68
2022/05/23 15:05:19;;;;;;;2.30;2.10;;;22.70;81.00;;;;;;6282059;27;89067;-68
2022/05/23 15:08:22;;;;;;;3.25;2.20;;;22.70;81.00;;;;;;6281797;27;89108;-67
2022/05/23 15:11:27;;;;;;;2.85;2.30;;;22.70;81.00;;;;;;6281915;27;87892;-68
2022/05/23 15:14:35;;;;;;;2.75;2.05;;;22.70;81.00;;;;;;6281818;27;89061;-67
2022/05/23 15:17:38;;;;;;;2.80;2.22;;;22.70;80.90;;;;;;6282641;27;88568;-67
2022/05/23 15:20:40;;;;;;;3.95;2.20;;;22.70;80.80;;;;;;6272528;27;89072;-68
2022/05/23 15:23:42;;;;;;;2.88;2.20;;;22.70;80.90;;;;;;6282075;27;89244;-67
2022/05/23 15:26:47;;;;;;;2.35;2.15;;;22.70;80.90;;;;;;6280168;27;90396;-68
2022/05/23 15:29:49;;;;;;;4.95;2.10;;;22.70;80.90;;;;;;6278887;27;89056;-67
2022/05/23 15:32:53;;;;;;;4.82;2.30;;;22.70;81.10;;;;;;6279769;27;88983;-69
2022/05/23 15:35:55;;;;;;;3.67;2.10;;;22.70;81.30;;;;;;6280087;27;87915;-68
2022/05/23 15:38:57;;;;;;;2.38;2.17;;;22.70;81.30;;;;;;6280836;27;89157;-69
2022/05/23 15:42:02;;;;;;;5.43;2.55;;;22.70;81.30;;;;;;6279110;27;89019;-68
2022/05/23 15:45:07;;;;;;;2.55;2.35;;;22.70;81.30;;;;;;6278631;27;89185;-68
2022/05/23 15:48:11;;;;;;;6.60;2.50;;;22.70;81.10;;;;;;6278647;27;88347;-68
2022/05/23 15:51:15;;;;;;;3.38;2.22;;;22.70;81.20;;;;;;6277890;27;89078;-68
2022/05/23 15:54:17;;;;;;;3.38;2.30;;;22.70;81.10;;;;;;6278417;27;90981;-68
2022/05/23 15:57:24;;;;;;;3.95;2.28;;;22.70;81.20;;;;;;6275765;27;90139;-69
2022/05/23 16:00:28;;;;;;;2.40;2.10;;;22.70;81.30;;;;;;6277505;27;89155;-69
2022/05/23 16:03:31;;;;;;;3.85;2.00;;;22.80;81.40;;;;;;6279356;27;89087;-68
2022/05/23 16:06:33;;;;;;;37.42;34.22;;;22.80;81.60;;;;;;6279768;27;89058;-66
2022/05/23 16:09:35;;;;;;;17.75;14.48;;;22.70;82.00;;;;;;6282237;27;89143;-67
2022/05/23 16:12:41;;;;;;;10.73;8.98;;;22.80;81.80;;;;;;6282323;27;89255;-67
2022/05/23 16:15:47;;;;;;;9.10;6.57;;;22.80;81.70;;;;;;6282883;27;89296;-67
2022/05/23 16:18:53;;;;;;;8.60;6.47;;;22.80;81.60;;;;;;6283074;27;88673;-66
2022/05/23 16:21:59;;;;;;;8.70;6.30;;;22.80;82.00;;;;;;6262619;27;89162;-68
2022/05/23 16:25:01;;;;;;;7.38;5.88;;;22.90;82.30;;;;;;6283152;27;89077;-68
2022/05/23 16:28:03;;;;;;;7.68;5.70;;;22.90;82.10;;;;;;6281792;27;91201;-67
2022/05/23 16:31:06;;;;;;;7.30;5.15;;;22.90;82.70;;;;;;6283342;27;89270;-67
2022/05/23 16:37:29;;;;;;;5.35;4.45;;;22.90;81.50;;;;;;6282469;27;88246;-67
2022/05/23 16:40:31;;;;;;;7.53;5.07;;;22.80;81.30;;;;;;6280277;27;89085;-68
2022/05/23 16:43:33;;;;;;;6.25;4.55;;;22.90;81.30;;;;;;6280626;27;87925;-67
2022/05/23 16:46:35;;;;;;;5.38;4.68;;;22.90;81.30;;;;;;6281085;27;88980;-67
2022/05/23 16:49:39;;;;;;;5.68;4.60;;;22.90;81.30;;;;;;6283341;27;88480;-67
2022/05/23 16:52:41;;;;;;;5.25;4.55;;;22.90;81.40;;;;;;6282303;27;88653;-68
2022/05/23 16:55:43;;;;;;;5.82;4.40;;;22.90;81.50;;;;;;6281731;27;89015;-67
2022/05/23 16:58:46;;;;;;;6.65;4.40;;;22.90;81.60;;;;;;6281629;27;88920;-68
2022/05/23 17:01:48;;;;;;;6.20;4.45;;;22.90;81.70;;;;;;6281986;27;89155;-67
2022/05/23 17:04:51;;;;;;;6.32;4.78;;;22.90;81.60;;;;;;6282274;27;89004;-67
2022/05/23 17:07:54;;;;;;;5.43;4.53;;;22.90;81.60;;;;;;6281697;27;91116;-67
2022/05/23 17:10:56;;;;;;;6.43;4.60;;;22.90;81.80;;;;;;6282200;27;89173;-67
2022/05/23 17:13:58;;;;;;;5.70;4.30;;;22.90;81.80;;;;;;6282051;27;89122;-67
2022/05/23 17:17:00;;;;;;;6.13;4.10;;;22.90;81.70;;;;;;6281428;27;88974;-67